Pagrindinis puslapis
METAR-TAF:

METAR-TAF

Oro uostai :

Florianopolis, Santa Katarina, Brazilija

platuma: 27-40S, ilguma: 048-33W, Aukštis: 5 m

Dabartinis oras

Ataskaita buvo paskelbta 16 minutes, ne 22:00 UTC
Vėjas 6 kt iš Šiaurės/Šiaurės Vakarų
Temperatūra 25°C
Drėgmė 89%
Slėgis 1006 hPa
Matomumas 10 km arba daugiau
Mažai debesys ne aukštis 3500 ft

METAR: SBFL 122200Z 34006KT 9999 FEW035 25/23 Q1006

Laikas: 19:16 (22:16 UTC)

Prognozė

Ataskaita buvo paskelbta 7 valandos ir 16 minutes, ne 15:00 UTC
Prognozė galioja nuo 12 metu 18 UTC su 13 metu 18 UTC
Vėjas 10 kt iš Šiaurės
Matomumas 10 km arba daugiau
Mažai debesys ne aukštis 3000 ft
Tapsmas
nuo 12 metu 22 UTC su 12 metu 24 UTC
Išsisklaidę debesys ne aukštis 2500 ft
Tapsmas
nuo 13 metu 02 UTC su 13 metu 04 UTC
Vėjas 16 kt iš Pietų
Su prošvaistėmis ne aukštis 2500 ft

TAF: SBFL 121500Z 1218/1318 35010KT 9999 FEW030 TX34/1218Z TN20/1306Z BECMG 1222/1224 SCT025 BECMG 1302/1304 18016KT BKN025 RMK PCX

Orai ataskaitas ir orų prognozės (METAR, TAF).

turimą stotys yra geltonos ir raudonos taškus žemėlapyje.

Perkelti pele per norėdami pamatyti stoties vardą.

Tada spustelėkite, norėdami matyti oro stebėjimo ir prognozės.

Norėdami pakeisti žemėlapį: spustelėkite ant žalios mygtukų su juodo kryžiaus žemyn,; žalią mygtuką su brūkšneliu, jei norite nutolinti; arba žalių rodyklių gretimoms žemėlapius.


METAR-TAF: